createdAt,value
2017-01-01T00:00:23.911Z,1018.01
2017-01-01T00:00:49.999Z,1017.95
2017-01-01T00:01:16.090Z,1017.99
2017-01-01T00:01:42.201Z,1017.96
2017-01-01T00:02:08.286Z,1018
2017-01-01T00:02:34.375Z,1017.93
2017-01-01T00:03:00.477Z,1017.94
2017-01-01T00:03:26.572Z,1017.96
2017-01-01T00:03:52.673Z,1017.93
2017-01-01T00:04:18.762Z,1017.9
2017-01-01T00:04:44.859Z,1017.91
2017-01-01T00:05:10.969Z,1017.92
2017-01-01T00:05:37.061Z,1017.87
2017-01-01T00:06:03.174Z,1017.87
2017-01-01T00:06:29.280Z,1017.95
2017-01-01T00:06:55.378Z,1017.87
2017-01-01T00:07:21.459Z,1017.84
2017-01-01T00:07:47.563Z,1017.82
2017-01-01T00:08:13.654Z,1017.79
2017-01-01T00:08:39.750Z,1017.82
2017-01-01T00:09:05.854Z,1017.83
2017-01-01T00:09:31.932Z,1017.79
2017-01-01T00:09:58.040Z,1017.77
2017-01-01T00:10:24.130Z,1017.83
2017-01-01T00:10:50.214Z,1017.77
2017-01-01T00:11:16.312Z,1017.9
2017-01-01T00:11:42.406Z,1017.82
2017-01-01T00:12:08.488Z,1017.75
2017-01-01T00:12:34.585Z,1017.75
2017-01-01T00:13:00.695Z,1017.77
2017-01-01T00:13:26.779Z,1017.75
2017-01-01T00:13:52.877Z,1017.68
2017-01-01T00:14:18.976Z,1017.77
2017-01-01T00:14:45.065Z,1017.76
2017-01-01T00:15:11.159Z,1017.66
2017-01-01T00:15:37.264Z,1017.71
2017-01-01T00:16:03.352Z,1017.68
2017-01-01T00:16:29.436Z,1017.67
2017-01-01T00:16:55.539Z,1017.74
2017-01-01T00:17:21.633Z,1017.65
2017-01-01T00:17:47.717Z,1017.64
2017-01-01T00:18:13.822Z,1017.6
2017-01-01T00:18:39.920Z,1017.6
2017-01-01T00:19:06.009Z,1017.65
2017-01-01T00:19:32.105Z,1017.6
2017-01-01T00:19:58.206Z,1017.65
2017-01-01T00:20:24.301Z,1017.61
2017-01-01T00:20:50.392Z,1017.63
2017-01-01T00:21:16.474Z,1017.66
2017-01-01T00:21:42.578Z,1017.66
2017-01-01T00:22:08.675Z,1017.66
2017-01-01T00:22:34.766Z,1017.67
2017-01-01T00:23:00.864Z,1017.65
2017-01-01T00:23:26.972Z,1017.65
2017-01-01T00:23:53.049Z,1017.67
2017-01-01T00:24:19.149Z,1017.66
2017-01-01T00:24:45.248Z,1017.68
2017-01-01T00:25:11.342Z,1017.69
2017-01-01T00:25:37.436Z,1017.69
2017-01-01T00:26:03.530Z,1017.69
2017-01-01T00:26:29.635Z,1017.65
2017-01-01T00:26:55.732Z,1017.67
2017-01-01T00:27:21.809Z,1017.73
2017-01-01T00:27:47.911Z,1017.67
2017-01-01T00:28:14.013Z,1017.63
2017-01-01T00:28:40.098Z,1017.67
2017-01-01T00:29:06.184Z,1017.65
2017-01-01T00:29:32.294Z,1017.65
2017-01-01T00:29:58.386Z,1017.68
2017-01-01T00:30:24.474Z,1017.65
2017-01-01T00:30:50.580Z,1017.7
2017-01-01T00:31:16.667Z,1017.65
2017-01-01T00:31:42.769Z,1017.65
2017-01-01T00:32:08.859Z,1017.66
2017-01-01T00:32:34.955Z,1017.67
2017-01-01T00:33:01.054Z,1017.6
2017-01-01T00:33:27.148Z,1017.62
2017-01-01T00:33:53.243Z,1017.61
2017-01-01T00:34:19.352Z,1017.59
2017-01-01T00:34:45.445Z,1017.61
2017-01-01T00:35:11.529Z,1017.55
2017-01-01T00:35:37.636Z,1017.54
2017-01-01T00:36:03.733Z,1017.58
2017-01-01T00:36:29.818Z,1017.51
2017-01-01T00:36:55.921Z,1017.52
2017-01-01T00:37:22.023Z,1017.52
2017-01-01T00:37:48.105Z,1017.52
2017-01-01T00:38:14.203Z,1017.53
2017-01-01T00:38:40.307Z,1017.49
2017-01-01T00:39:06.391Z,1017.48
2017-01-01T00:39:32.479Z,1017.54
2017-01-01T00:39:58.582Z,1017.53
2017-01-01T00:40:24.675Z,1017.45
2017-01-01T00:40:50.759Z,1017.45
2017-01-01T00:41:16.865Z,1017.48
2017-01-01T00:41:42.958Z,1017.45
2017-01-01T00:42:09.051Z,1017.49
2017-01-01T00:42:35.154Z,1017.48
2017-01-01T00:43:01.244Z,1017.46
2017-01-01T00:43:27.349Z,1017.46
2017-01-01T00:43:53.445Z,1017.41
2017-01-01T00:44:19.527Z,1017.4
2017-01-01T00:44:45.632Z,1017.44
2017-01-01T00:45:11.725Z,1017.39
2017-01-01T00:45:37.814Z,1017.41
2017-01-01T00:46:03.919Z,1017.43
2017-01-01T00:46:30.022Z,1017.38
2017-01-01T00:46:56.105Z,1017.37
2017-01-01T00:47:22.208Z,1017.37
2017-01-01T00:47:48.306Z,1017.37
2017-01-01T00:48:14.399Z,1017.32
2017-01-01T00:48:40.496Z,1017.33
2017-01-01T00:49:06.577Z,1017.32
2017-01-01T00:49:32.680Z,1017.33
2017-01-01T00:49:58.773Z,1017.28
2017-01-01T00:50:24.859Z,1017.29
2017-01-01T00:50:50.964Z,1017.23
2017-01-01T00:51:17.071Z,1017.25
2017-01-01T00:51:43.148Z,1017.23
2017-01-01T00:52:09.246Z,1017.2
2017-01-01T00:52:35.345Z,1017.24
2017-01-01T00:53:01.438Z,1017.18
2017-01-01T00:53:27.534Z,1017.2
2017-01-01T00:53:53.624Z,1017.2
2017-01-01T00:54:19.724Z,1017.13
2017-01-01T00:54:45.831Z,1017.11
2017-01-01T00:55:11.918Z,1017.11
2017-01-01T00:55:38.014Z,1017.07
2017-01-01T00:56:04.117Z,1017.1
2017-01-01T00:56:30.204Z,1017.09
2017-01-01T00:56:56.294Z,1017.05
2017-01-01T00:57:22.404Z,1017.06
2017-01-01T00:57:48.496Z,1017
2017-01-01T00:58:14.582Z,1017.01
2017-01-01T00:58:40.681Z,1017
2017-01-01T00:59:06.779Z,1017.06
2017-01-01T00:59:32.864Z,1017.02
2017-01-01T00:59:58.973Z,1017.03
2017-01-01T01:00:25.063Z,1016.99
2017-01-01T01:00:51.157Z,1017.01
2017-01-01T01:01:17.253Z,1017.06
2017-01-01T01:01:43.353Z,1017.02
2017-01-01T01:02:09.441Z,1017.05
2017-01-01T01:02:35.538Z,1017.01
2017-01-01T01:03:01.645Z,1017.01
2017-01-01T01:03:27.730Z,1017.02
2017-01-01T01:03:53.826Z,1017.05
2017-01-01T01:04:19.928Z,1017
2017-01-01T01:04:46.016Z,1017.03
2017-01-01T01:05:12.120Z,1017.04
2017-01-01T01:05:38.203Z,1017.06
2017-01-01T01:06:04.302Z,1017.03
2017-01-01T01:06:30.404Z,1017.04
2017-01-01T01:06:56.488Z,1017.05
2017-01-01T01:07:22.586Z,1017.03
2017-01-01T01:07:48.683Z,1017.04
2017-01-01T01:08:14.774Z,1017.11
2017-01-01T01:08:40.854Z,1017.03
2017-01-01T01:09:06.967Z,1017.02
2017-01-01T01:09:33.054Z,1017.03
2017-01-01T01:09:59.144Z,1016.99
2017-01-01T01:10:25.244Z,1017.01
2017-01-01T01:10:51.337Z,1016.98
2017-01-01T01:11:17.442Z,1016.98
2017-01-01T01:11:43.529Z,1017
2017-01-01T01:12:09.621Z,1016.98
2017-01-01T01:12:35.723Z,1016.98
2017-01-01T01:13:01.821Z,1016.95
2017-01-01T01:13:27.904Z,1016.98
2017-01-01T01:13:54.011Z,1016.92
2017-01-01T01:14:20.109Z,1016.98
2017-01-01T01:14:46.197Z,1016.95
2017-01-01T01:15:12.293Z,1016.92
2017-01-01T01:15:38.394Z,1017.01
2017-01-01T01:16:04.490Z,1016.91
2017-01-01T01:16:30.593Z,1016.9
2017-01-01T01:16:56.671Z,1016.91
2017-01-01T01:17:22.771Z,1016.9
2017-01-01T01:17:48.868Z,1016.91
2017-01-01T01:18:14.952Z,1016.9
2017-01-01T01:18:41.050Z,1016.87
2017-01-01T01:19:07.157Z,1016.82
2017-01-01T01:19:33.237Z,1016.88
2017-01-01T01:19:59.335Z,1016.89
2017-01-01T01:20:25.436Z,1016.89
2017-01-01T01:20:51.523Z,1016.86
2017-01-01T01:21:17.620Z,1016.86
2017-01-01T01:21:43.713Z,1016.86
2017-01-01T01:22:09.814Z,1016.9
2017-01-01T01:22:35.913Z,1016.88
2017-01-01T01:23:01.998Z,1016.88
2017-01-01T01:23:28.094Z,1016.88
2017-01-01T01:23:54.201Z,1016.85
2017-01-01T01:24:20.284Z,1016.83
2017-01-01T01:24:46.379Z,1016.86
2017-01-01T01:25:12.483Z,1016.88
2017-01-01T01:25:38.570Z,1016.84
2017-01-01T01:26:04.660Z,1016.86
2017-01-01T01:26:30.765Z,1016.89
2017-01-01T01:26:56.861Z,1016.89
2017-01-01T01:27:22.961Z,1016.92
2017-01-01T01:27:49.050Z,1016.89
2017-01-01T01:28:15.151Z,1016.95
2017-01-01T01:28:41.251Z,1016.93
2017-01-01T01:29:07.343Z,1016.93
2017-01-01T01:29:33.425Z,1016.97
2017-01-01T01:29:59.539Z,1016.94
2017-01-01T01:30:25.631Z,1016.93
2017-01-01T01:30:51.722Z,1016.93
2017-01-01T01:31:17.825Z,1016.93
2017-01-01T01:31:43.923Z,1016.9
2017-01-01T01:32:10.008Z,1016.87
2017-01-01T01:32:36.105Z,1016.98
2017-01-01T01:33:02.195Z,1016.91
2017-01-01T01:33:28.297Z,1016.93
2017-01-01T01:33:54.393Z,1016.93
2017-01-01T01:34:20.478Z,1016.93
2017-01-01T01:34:46.587Z,1016.9
2017-01-01T01:35:12.684Z,1016.91
2017-01-01T01:35:38.769Z,1016.87
2017-01-01T01:36:04.863Z,1016.87
2017-01-01T01:36:30.969Z,1016.92
2017-01-01T01:36:57.055Z,1016.88
2017-01-01T01:37:23.153Z,1016.87
2017-01-01T01:37:49.259Z,1016.82
2017-01-01T01:38:15.342Z,1016.85
2017-01-01T01:38:41.440Z,1016.82
2017-01-01T01:39:07.530Z,1016.81
2017-01-01T01:39:33.626Z,1016.84
2017-01-01T01:39:59.730Z,1016.83
2017-01-01T01:40:25.811Z,1016.86
2017-01-01T01:40:51.912Z,1016.83
2017-01-01T01:41:18.016Z,1016.79
2017-01-01T01:41:44.105Z,1016.82
2017-01-01T01:42:10.200Z,1016.83
2017-01-01T01:42:36.323Z,1016.85
2017-01-01T01:43:02.412Z,1016.82
2017-01-01T01:43:28.493Z,1016.76
2017-01-01T01:43:54.602Z,1016.82
2017-01-01T01:44:20.691Z,1016.79
2017-01-01T01:44:46.785Z,1016.82
2017-01-01T01:45:12.885Z,1016.79
2017-01-01T01:45:38.985Z,1016.81
2017-01-01T01:46:05.069Z,1016.8
2017-01-01T01:46:31.167Z,1016.77
2017-01-01T01:46:57.271Z,1016.8
2017-01-01T01:47:23.355Z,1016.78
2017-01-01T01:47:49.452Z,1016.78
2017-01-01T01:48:15.555Z,1016.85
2017-01-01T01:48:41.639Z,1016.78
2017-01-01T01:49:07.729Z,1016.76
2017-01-01T01:49:33.825Z,1016.72
2017-01-01T01:49:59.924Z,1016.74
2017-01-01T01:50:26.023Z,1016.67
2017-01-01T01:50:52.109Z,1016.72
2017-01-01T01:51:18.203Z,1016.71
2017-01-01T01:51:44.310Z,1016.72
2017-01-01T01:52:10.394Z,1016.68
2017-01-01T01:52:36.492Z,1016.66
2017-01-01T01:53:02.597Z,1016.74
2017-01-01T01:53:28.688Z,1016.66
2017-01-01T01:53:54.766Z,1016.68
2017-01-01T01:54:20.875Z,1016.71
2017-01-01T01:54:46.969Z,1016.67
2017-01-01T01:55:13.065Z,1016.67
2017-01-01T01:55:39.160Z,1016.69
2017-01-01T01:56:05.254Z,1016.65
2017-01-01T01:56:31.359Z,1016.64
2017-01-01T01:56:57.444Z,1016.66
2017-01-01T01:57:23.530Z,1016.6
2017-01-01T01:57:49.640Z,1016.63
2017-01-01T01:58:15.733Z,1016.58
2017-01-01T01:58:41.826Z,1016.6
2017-01-01T01:59:07.927Z,1016.59
2017-01-01T01:59:34.024Z,1016.55
2017-01-01T02:00:00.108Z,1016.58
2017-01-01T02:00:26.212Z,1016.56
2017-01-01T02:00:52.299Z,1016.59
2017-01-01T02:01:18.404Z,1016.6
2017-01-01T02:01:44.497Z,1016.56
2017-01-01T02:02:40.423Z,1016.61
2017-01-01T02:03:06.521Z,1016.57
2017-01-01T02:03:32.629Z,1016.54
2017-01-01T02:03:58.714Z,1016.53
2017-01-01T02:04:24.809Z,1016.53
2017-01-01T02:04:50.912Z,1016.51
2017-01-01T02:05:17.000Z,1016.49
2017-01-01T02:05:43.085Z,1016.46
2017-01-01T02:06:09.194Z,1016.46
2017-01-01T02:06:35.283Z,1016.42
2017-01-01T02:07:01.387Z,1016.41
2017-01-01T02:07:27.472Z,1016.36
2017-01-01T02:07:53.565Z,1016.37
2017-01-01T02:08:19.669Z,1016.39
2017-01-01T02:08:45.761Z,1016.43
2017-01-01T02:09:11.841Z,1016.39
2017-01-01T02:09:37.949Z,1016.34
2017-01-01T02:10:04.037Z,1016.41
2017-01-01T02:10:30.131Z,1016.33
2017-01-01T02:10:56.231Z,1016.4
2017-01-01T02:11:22.332Z,1016.42
2017-01-01T02:11:48.416Z,1016.34
2017-01-01T02:12:14.514Z,1016.37
2017-01-01T02:12:40.605Z,1016.43
2017-01-01T02:13:06.707Z,1016.44
2017-01-01T02:13:32.805Z,1016.46
2017-01-01T02:13:58.885Z,1016.5
2017-01-01T02:14:24.990Z,1016.49
2017-01-01T02:14:51.086Z,1016.51
2017-01-01T02:15:17.171Z,1016.55
2017-01-01T02:15:43.275Z,1016.51
2017-01-01T02:16:09.372Z,1016.54
2017-01-01T02:16:35.457Z,1016.55
2017-01-01T02:17:01.550Z,1016.56
2017-01-01T02:17:27.659Z,1016.53
2017-01-01T02:17:53.741Z,1016.54
2017-01-01T02:18:19.836Z,1016.52
2017-01-01T02:18:45.925Z,1016.53
2017-01-01T02:19:12.052Z,1016.48
2017-01-01T02:19:38.132Z,1016.46
2017-01-01T02:20:04.213Z,1016.42
2017-01-01T02:20:30.315Z,1016.43
2017-01-01T02:20:56.418Z,1016.45
2017-01-01T02:21:22.506Z,1016.42
2017-01-01T02:21:48.600Z,1016.43
2017-01-01T02:22:14.705Z,1016.47
2017-01-01T02:22:40.793Z,1016.44
2017-01-01T02:23:06.876Z,1016.45
2017-01-01T02:23:32.981Z,1016.42
2017-01-01T02:23:59.077Z,1016.39
2017-01-01T02:24:25.179Z,1016.39
2017-01-01T02:24:51.263Z,1016.33
2017-01-01T02:25:17.357Z,1016.33
2017-01-01T02:25:43.461Z,1016.32
2017-01-01T02:26:09.544Z,1016.36
2017-01-01T02:26:35.632Z,1016.35
2017-01-01T02:27:01.735Z,1016.28
2017-01-01T02:27:27.828Z,1016.32
2017-01-01T02:27:53.911Z,1016.25
2017-01-01T02:28:20.021Z,1016.31
2017-01-01T02:28:46.118Z,1016.26
2017-01-01T02:29:12.202Z,1016.24
2017-01-01T02:29:38.303Z,1016.2
2017-01-01T02:30:04.400Z,1016.2
2017-01-01T02:30:30.490Z,1016.28
2017-01-01T02:30:56.585Z,1016.19
2017-01-01T02:31:22.690Z,1016.21
2017-01-01T02:31:48.776Z,1016.16
2017-01-01T02:32:14.875Z,1016.2
2017-01-01T02:32:40.972Z,1016.11
2017-01-01T02:33:07.059Z,1016.12
2017-01-01T02:33:33.143Z,1016.15
2017-01-01T02:33:59.250Z,1016.16
2017-01-01T02:34:25.348Z,1016.18
2017-01-01T02:34:51.447Z,1016.14
2017-01-01T02:35:17.539Z,1016.18
2017-01-01T02:35:43.629Z,1016.09
2017-01-01T02:36:09.735Z,1016.12
2017-01-01T02:36:35.827Z,1016.02
2017-01-01T02:37:01.914Z,1016.06
2017-01-01T02:37:28.018Z,1016.05
2017-01-01T02:37:54.160Z,1016.01
2017-01-01T02:38:20.253Z,1016.03
2017-01-01T02:38:46.354Z,1016.06
2017-01-01T02:39:12.453Z,1016.02
2017-01-01T02:39:38.538Z,1015.99
2017-01-01T02:40:04.632Z,1015.97
2017-01-01T02:40:30.725Z,1015.97
2017-01-01T02:40:56.828Z,1015.97
2017-01-01T02:41:22.921Z,1016
2017-01-01T02:41:49.011Z,1015.98
2017-01-01T02:42:15.109Z,1015.95
2017-01-01T02:42:41.208Z,1015.94
2017-01-01T02:43:07.301Z,1015.95
2017-01-01T02:43:33.400Z,1015.99
2017-01-01T02:43:59.496Z,1016
2017-01-01T02:44:25.583Z,1015.99
2017-01-01T02:44:51.680Z,1015.99
2017-01-01T02:45:17.783Z,1016.08
2017-01-01T02:45:43.867Z,1016.02
2017-01-01T02:46:09.966Z,1016.03
2017-01-01T02:46:36.054Z,1016.05
2017-01-01T02:47:02.151Z,1015.94
2017-01-01T02:47:28.260Z,1015.99
2017-01-01T02:47:54.340Z,1016.05
2017-01-01T02:48:20.436Z,1016.07
2017-01-01T02:48:46.533Z,1016.03
2017-01-01T02:49:12.624Z,1016.02
2017-01-01T02:49:38.719Z,1015.99
2017-01-01T02:50:04.821Z,1016
2017-01-01T02:50:30.909Z,1016
2017-01-01T02:50:56.987Z,1016.02
2017-01-01T02:51:23.093Z,1016.03
2017-01-01T02:51:49.183Z,1016.01
2017-01-01T02:52:15.292Z,1016.06
2017-01-01T02:52:41.378Z,1016
2017-01-01T02:53:07.478Z,1016.01
2017-01-01T02:53:33.576Z,1015.92
2017-01-01T02:53:59.665Z,1015.96
2017-01-01T02:54:25.749Z,1015.97
2017-01-01T02:54:51.851Z,1016.05
2017-01-01T02:55:17.944Z,1016.04
2017-01-01T02:55:44.028Z,1015.95
2017-01-01T02:56:10.127Z,1015.98
2017-01-01T02:56:36.216Z,1015.98
2017-01-01T02:57:02.318Z,1015.94
2017-01-01T02:57:28.412Z,1015.93
2017-01-01T02:57:54.489Z,1015.92
2017-01-01T02:58:20.597Z,1015.92
2017-01-01T02:58:46.686Z,1015.86
2017-01-01T02:59:12.776Z,1015.95
2017-01-01T02:59:38.878Z,1015.9
2017-01-01T03:00:04.969Z,1015.91
2017-01-01T03:00:31.061Z,1015.9
2017-01-01T03:00:57.156Z,1015.8
2017-01-01T03:01:23.259Z,1015.77
2017-01-01T03:01:49.346Z,1015.75
2017-01-01T03:02:15.445Z,1015.71
2017-01-01T03:02:41.529Z,1015.79
2017-01-01T03:03:07.636Z,1015.82
2017-01-01T03:03:33.732Z,1015.75
2017-01-01T03:03:59.817Z,1015.74
2017-01-01T03:04:25.914Z,1015.8
2017-01-01T03:04:52.015Z,1015.68
2017-01-01T03:05:18.100Z,1015.67
2017-01-01T03:05:44.200Z,1015.67
2017-01-01T03:06:10.303Z,1015.7
2017-01-01T03:06:36.392Z,1015.68
2017-01-01T03:07:02.485Z,1015.76
2017-01-01T03:07:28.591Z,1015.63
2017-01-01T03:07:54.731Z,1015.68
2017-01-01T03:08:20.839Z,1015.7
2017-01-01T03:08:46.919Z,1015.75
2017-01-01T03:09:13.016Z,1015.73
2017-01-01T03:09:39.116Z,1015.76
2017-01-01T03:10:05.206Z,1015.72
2017-01-01T03:10:31.303Z,1015.73
2017-01-01T03:10:57.402Z,1015.82
2017-01-01T03:11:23.491Z,1015.76
2017-01-01T03:11:49.580Z,1015.81
2017-01-01T03:12:15.683Z,1015.75
2017-01-01T03:12:41.777Z,1015.79
2017-01-01T03:13:07.865Z,1015.74
2017-01-01T03:13:33.963Z,1015.75
2017-01-01T03:14:00.063Z,1015.71
2017-01-01T03:14:26.145Z,1015.79
2017-01-01T03:14:52.244Z,1015.67
2017-01-01T03:15:18.345Z,1015.66
2017-01-01T03:15:44.429Z,1015.71
2017-01-01T03:16:10.530Z,1015.61
2017-01-01T03:16:36.630Z,1015.68
2017-01-01T03:17:02.712Z,1015.68
2017-01-01T03:17:28.800Z,1015.66
2017-01-01T03:17:54.908Z,1015.65
2017-01-01T03:18:20.995Z,1015.75
2017-01-01T03:18:47.084Z,1015.72
2017-01-01T03:19:13.182Z,1015.63
2017-01-01T03:19:39.275Z,1015.72
2017-01-01T03:20:05.386Z,1015.63
2017-01-01T03:20:31.471Z,1015.68
2017-01-01T03:20:57.566Z,1015.63
2017-01-01T03:21:23.668Z,1015.66
2017-01-01T03:21:49.755Z,1015.68
2017-01-01T03:22:15.842Z,1015.6
2017-01-01T03:22:41.951Z,1015.67
2017-01-01T03:23:08.046Z,1015.63
2017-01-01T03:23:34.139Z,1015.71
2017-01-01T03:24:00.248Z,1015.66
2017-01-01T03:24:26.345Z,1015.67
2017-01-01T03:24:52.441Z,1015.66
2017-01-01T03:25:18.530Z,1015.66
2017-01-01T03:25:44.610Z,1015.6
2017-01-01T03:26:10.717Z,1015.56
2017-01-01T03:26:36.811Z,1015.61
2017-01-01T03:27:02.898Z,1015.63
2017-01-01T03:27:29.001Z,1015.62
2017-01-01T03:27:55.098Z,1015.59
2017-01-01T03:28:21.183Z,1015.61
2017-01-01T03:28:47.280Z,1015.62
2017-01-01T03:29:13.387Z,1015.62
2017-01-01T03:29:39.467Z,1015.59
2017-01-01T03:30:05.560Z,1015.55
2017-01-01T03:30:31.644Z,1015.56
2017-01-01T03:30:57.748Z,1015.54
2017-01-01T03:31:23.846Z,1015.54
2017-01-01T03:31:49.936Z,1015.57
2017-01-01T03:32:16.032Z,1015.48
2017-01-01T03:32:42.136Z,1015.48
2017-01-01T03:33:08.218Z,1015.56
2017-01-01T03:33:34.314Z,1015.48
2017-01-01T03:34:00.421Z,1015.45
2017-01-01T03:34:26.508Z,1015.48
2017-01-01T03:34:52.599Z,1015.42
2017-01-01T03:35:18.701Z,1015.47
2017-01-01T03:35:44.792Z,1015.46
2017-01-01T03:36:10.894Z,1015.41
2017-01-01T03:36:36.969Z,1015.49
2017-01-01T03:37:03.060Z,1015.45
2017-01-01T03:37:29.162Z,1015.47
2017-01-01T03:37:56.666Z,1015.44
2017-01-01T03:38:23.259Z,1015.5
2017-01-01T03:38:49.358Z,1015.45
2017-01-01T03:39:15.450Z,1015.46
2017-01-01T03:39:41.542Z,1015.42
2017-01-01T03:40:07.650Z,1015.38
2017-01-01T03:40:33.733Z,1015.4
2017-01-01T03:40:59.816Z,1015.39
2017-01-01T03:41:25.916Z,1015.38
2017-01-01T03:41:52.010Z,1015.34
2017-01-01T03:42:18.114Z,1015.38
2017-01-01T03:42:44.200Z,1015.47
2017-01-01T03:43:10.283Z,1015.36
2017-01-01T03:43:36.394Z,1015.38
2017-01-01T03:44:02.483Z,1015.32
2017-01-01T03:44:28.574Z,1015.34
2017-01-01T03:44:54.670Z,1015.33
2017-01-01T03:45:20.768Z,1015.34
2017-01-01T03:45:46.855Z,1015.43
2017-01-01T03:46:12.960Z,1015.36
2017-01-01T03:46:39.064Z,1015.38
2017-01-01T03:47:05.155Z,1015.36
2017-01-01T03:47:31.245Z,1015.33
2017-01-01T03:47:57.336Z,1015.33
2017-01-01T03:48:23.438Z,1015.31
2017-01-01T03:48:49.536Z,1015.35
2017-01-01T03:49:15.620Z,1015.38
2017-01-01T03:49:41.719Z,1015.35
2017-01-01T03:50:07.822Z,1015.31
2017-01-01T03:50:33.906Z,1015.31
2017-01-01T03:51:00.008Z,1015.33
2017-01-01T03:51:26.109Z,1015.36
2017-01-01T03:51:52.196Z,1015.42
2017-01-01T03:52:18.287Z,1015.37
2017-01-01T03:52:44.379Z,1015.35
2017-01-01T03:53:10.480Z,1015.3
2017-01-01T03:53:36.579Z,1015.33
2017-01-01T03:54:02.663Z,1015.35
2017-01-01T03:54:28.757Z,1015.32
2017-01-01T03:54:54.879Z,1015.29
2017-01-01T03:55:20.951Z,1015.32
2017-01-01T03:55:47.042Z,1015.33
2017-01-01T03:56:13.142Z,1015.35
2017-01-01T03:56:39.229Z,1015.35
2017-01-01T03:57:05.316Z,1015.37
2017-01-01T03:57:31.426Z,1015.41
2017-01-01T03:57:57.516Z,1015.38
2017-01-01T03:58:23.604Z,1015.43
2017-01-01T03:58:49.705Z,1015.41
2017-01-01T03:59:15.800Z,1015.36
2017-01-01T03:59:41.886Z,1015.36
2017-01-01T04:00:07.987Z,1015.37
2017-01-01T04:00:34.095Z,1015.31
2017-01-01T04:01:00.177Z,1015.4
2017-01-01T04:01:26.267Z,1015.48
2017-01-01T04:01:52.367Z,1015.38
2017-01-01T04:02:18.446Z,1015.4
2017-01-01T04:02:44.536Z,1015.35
2017-01-01T04:03:10.640Z,1015.32
2017-01-01T04:03:36.728Z,1015.35
2017-01-01T04:04:02.825Z,1015.35
2017-01-01T04:04:28.914Z,1015.36
2017-01-01T04:04:55.009Z,1015.37
2017-01-01T04:05:21.146Z,1015.39
2017-01-01T04:05:47.225Z,1015.4
2017-01-01T04:06:13.317Z,1015.34
2017-01-01T04:06:39.425Z,1015.38
2017-01-01T04:07:05.516Z,1015.36
2017-01-01T04:07:31.604Z,1015.31
2017-01-01T04:07:57.707Z,1015.33
2017-01-01T04:08:23.795Z,1015.35
2017-01-01T04:08:49.879Z,1015.31
2017-01-01T04:09:15.984Z,1015.29
2017-01-01T04:09:42.077Z,1015.26
2017-01-01T04:10:08.175Z,1015.28
2017-01-01T04:10:34.262Z,1015.36
2017-01-01T04:11:00.346Z,1015.39
2017-01-01T04:11:26.455Z,1015.35
2017-01-01T04:11:52.551Z,1015.25
2017-01-01T04:12:18.632Z,1015.27
2017-01-01T04:12:44.732Z,1015.29
2017-01-01T04:13:10.825Z,1015.34
2017-01-01T04:13:36.913Z,1015.18
2017-01-01T04:14:03.011Z,1015.23
2017-01-01T04:14:29.114Z,1015.27
2017-01-01T04:14:55.197Z,1015.23
2017-01-01T04:15:21.289Z,1015.23
2017-01-01T04:15:47.378Z,1015.17
2017-01-01T04:16:13.480Z,1015.24
2017-01-01T04:16:39.579Z,1015.19
2017-01-01T04:17:05.663Z,1015.18
2017-01-01T04:17:31.760Z,1015.21
2017-01-01T04:17:57.864Z,1015.24
2017-01-01T04:18:23.946Z,1015.2
2017-01-01T04:18:50.043Z,1015.22
2017-01-01T04:19:16.145Z,1015.2
2017-01-01T04:19:42.234Z,1015.2
2017-01-01T04:20:08.329Z,1015.15
2017-01-01T04:20:34.428Z,1015.14
2017-01-01T04:21:00.530Z,1015.16
2017-01-01T04:21:26.634Z,1015.06
2017-01-01T04:21:52.715Z,1015.15
2017-01-01T04:22:18.814Z,1015.09
2017-01-01T04:22:44.917Z,1015.12
2017-01-01T04:23:11.000Z,1015.12
2017-01-01T04:23:37.095Z,1015.15
2017-01-01T04:24:03.197Z,1015.18
2017-01-01T04:24:29.285Z,1015.15
2017-01-01T04:24:55.371Z,1015.1
2017-01-01T04:25:21.471Z,1015.1
2017-01-01T04:25:47.565Z,1015.07
2017-01-01T04:26:13.671Z,1015.07
2017-01-01T04:26:39.751Z,1015.11
2017-01-01T04:27:05.842Z,1015.1
2017-01-01T04:27:31.949Z,1015.14
2017-01-01T04:27:58.040Z,1015.05
2017-01-01T04:28:24.125Z,1015.13
2017-01-01T04:28:50.233Z,1015.09
2017-01-01T04:29:16.322Z,1015.04
2017-01-01T04:29:42.403Z,1015.04
2017-01-01T04:30:08.511Z,1014.99
2017-01-01T04:30:34.604Z,1014.95
2017-01-01T04:31:00.697Z,1014.99
2017-01-01T04:31:26.789Z,1015
2017-01-01T04:31:52.874Z,1015.03
2017-01-01T04:32:18.984Z,1014.97
2017-01-01T04:32:45.081Z,1015.02
2017-01-01T04:33:11.159Z,1014.97
2017-01-01T04:33:37.258Z,1014.97
2017-01-01T04:34:03.351Z,1015.01
2017-01-01T04:34:29.433Z,1015.01
2017-01-01T04:34:55.532Z,1015.04
2017-01-01T04:35:21.639Z,1015.02
2017-01-01T04:35:47.717Z,1015.02
2017-01-01T04:36:13.818Z,1014.98
2017-01-01T04:36:39.941Z,1015.03
2017-01-01T04:37:06.028Z,1015.06
2017-01-01T04:37:32.126Z,1014.97
2017-01-01T04:37:58.212Z,1015.02
2017-01-01T04:38:24.306Z,1014.96
2017-01-01T04:38:50.410Z,1015.04
2017-01-01T04:39:16.491Z,1015.02
2017-01-01T04:39:42.591Z,1015.01
2017-01-01T04:40:08.695Z,1015
2017-01-01T04:40:34.780Z,1014.93
2017-01-01T04:41:00.867Z,1014.95
2017-01-01T04:41:26.973Z,1014.96
2017-01-01T04:41:53.063Z,1014.99
2017-01-01T04:42:19.156Z,1014.96
2017-01-01T04:42:45.260Z,1014.97
2017-01-01T04:43:11.355Z,1014.97
2017-01-01T04:43:37.445Z,1014.92
2017-01-01T04:44:03.542Z,1014.91
2017-01-01T04:44:29.637Z,1014.98
2017-01-01T04:44:55.730Z,1014.88
2017-01-01T04:45:21.823Z,1014.85
2017-01-01T04:45:47.929Z,1014.87
2017-01-01T04:46:14.008Z,1014.86
2017-01-01T04:46:40.105Z,1014.82
2017-01-01T04:47:06.205Z,1014.76
2017-01-01T04:47:32.290Z,1014.8
2017-01-01T04:47:58.383Z,1014.83
2017-01-01T04:48:24.476Z,1014.77
2017-01-01T04:48:50.578Z,1014.74
2017-01-01T04:49:16.684Z,1014.73
2017-01-01T04:49:42.767Z,1014.76
2017-01-01T04:50:08.868Z,1014.79
2017-01-01T04:50:34.968Z,1014.79
2017-01-01T04:51:01.052Z,1014.72
2017-01-01T04:51:27.143Z,1014.72
2017-01-01T04:51:53.254Z,1014.74
2017-01-01T04:52:19.338Z,1014.74
2017-01-01T04:52:45.426Z,1014.67
2017-01-01T04:53:11.525Z,1014.72
2017-01-01T04:53:37.621Z,1014.71
2017-01-01T04:54:03.719Z,1014.7
2017-01-01T04:54:29.803Z,1014.69
2017-01-01T04:54:55.892Z,1014.72
2017-01-01T04:55:21.996Z,1014.75
2017-01-01T04:55:48.080Z,1014.73
2017-01-01T04:56:14.171Z,1014.69
2017-01-01T04:56:40.275Z,1014.67
2017-01-01T04:57:06.373Z,1014.68
2017-01-01T04:57:32.453Z,1014.67
2017-01-01T04:57:58.558Z,1014.68
2017-01-01T04:58:24.648Z,1014.64
2017-01-01T04:58:50.738Z,1014.68
2017-01-01T04:59:16.841Z,1014.66
2017-01-01T04:59:42.926Z,1014.7
2017-01-01T05:00:09.030Z,1014.64
2017-01-01T05:00:35.121Z,1014.63
2017-01-01T05:01:01.213Z,1014.65
2017-01-01T05:01:27.315Z,1014.62
2017-01-01T05:01:53.410Z,1014.55
2017-01-01T05:02:19.500Z,1014.64
2017-01-01T05:02:45.599Z,1014.59
2017-01-01T05:03:11.706Z,1014.63
2017-01-01T05:03:37.785Z,1014.63
2017-01-01T05:04:03.881Z,1014.6
2017-01-01T05:04:29.982Z,1014.6
2017-01-01T05:04:56.067Z,1014.57
2017-01-01T05:05:22.165Z,1014.61
2017-01-01T05:05:48.246Z,1014.59
2017-01-01T05:06:14.350Z,1014.63
2017-01-01T05:06:40.450Z,1014.59
2017-01-01T05:07:06.539Z,1014.6
2017-01-01T05:07:32.633Z,1014.61
2017-01-01T05:07:58.738Z,1014.61
2017-01-01T05:08:24.841Z,1014.58
2017-01-01T05:08:50.939Z,1014.58
2017-01-01T05:09:17.037Z,1014.66
2017-01-01T05:09:43.128Z,1014.61
2017-01-01T05:10:09.213Z,1014.66
2017-01-01T05:10:35.309Z,1014.64
2017-01-01T05:11:01.405Z,1014.65
2017-01-01T05:11:27.506Z,1014.61
2017-01-01T05:11:53.589Z,1014.56
2017-01-01T05:12:19.691Z,1014.57
2017-01-01T05:12:45.780Z,1014.62
2017-01-01T05:13:11.870Z,1014.59
2017-01-01T05:13:37.955Z,1014.49
2017-01-01T05:14:04.058Z,1014.52
2017-01-01T05:14:30.147Z,1014.54
2017-01-01T05:14:56.233Z,1014.51
2017-01-01T05:15:22.336Z,1014.52
2017-01-01T05:15:48.430Z,1014.45
2017-01-01T05:16:14.525Z,1014.52
2017-01-01T05:16:40.614Z,1014.53
2017-01-01T05:17:06.697Z,1014.5
2017-01-01T05:17:32.806Z,1014.44